sensor_id;sensor_type;location;lat;lon;timestamp;temperature;humidity
12872;DHT22;6504;53.766;9.626;2022-07-10T00:01:35;14.90;99.90
12872;DHT22;6504;53.766;9.626;2022-07-10T00:04:06;14.80;99.90
12872;DHT22;6504;53.766;9.626;2022-07-10T00:06:34;14.80;99.90
12872;DHT22;6504;53.766;9.626;2022-07-10T00:09:03;14.80;99.90
12872;DHT22;6504;53.766;9.626;2022-07-10T00:11:35;14.80;99.90
12872;DHT22;6504;53.766;9.626;2022-07-10T00:14:04;14.80;99.90
12872;DHT22;6504;53.766;9.626;2022-07-10T00:16:35;14.80;99.90
12872;DHT22;6504;53.766;9.626;2022-07-10T00:19:03;14.80;99.90
12872;DHT22;6504;53.766;9.626;2022-07-10T00:21:31;14.80;99.90
12872;DHT22;6504;53.766;9.626;2022-07-10T00:24:02;14.80;99.90
12872;DHT22;6504;53.766;9.626;2022-07-10T00:26:31;14.80;99.90
12872;DHT22;6504;53.766;9.626;2022-07-10T00:29:00;14.80;99.90
12872;DHT22;6504;53.766;9.626;2022-07-10T00:31:29;14.80;99.90
12872;DHT22;6504;53.766;9.626;2022-07-10T00:34:02;14.80;99.90
12872;DHT22;6504;53.766;9.626;2022-07-10T00:36:30;14.80;99.90
12872;DHT22;6504;53.766;9.626;2022-07-10T00:39:02;14.80;99.90
12872;DHT22;6504;53.766;9.626;2022-07-10T00:41:31;14.80;99.90
12872;DHT22;6504;53.766;9.626;2022-07-10T00:44:00;14.80;99.90
12872;DHT22;6504;53.766;9.626;2022-07-10T00:46:32;14.80;99.90
12872;DHT22;6504;53.766;9.626;2022-07-10T00:49:06;14.80;99.90
12872;DHT22;6504;53.766;9.626;2022-07-10T00:51:34;14.80;99.90
12872;DHT22;6504;53.766;9.626;2022-07-10T00:54:03;14.80;99.90
12872;DHT22;6504;53.766;9.626;2022-07-10T00:56:35;14.80;99.90
12872;DHT22;6504;53.766;9.626;2022-07-10T00:59:04;14.70;99.90
12872;DHT22;6504;53.766;9.626;2022-07-10T01:01:33;14.70;99.90
12872;DHT22;6504;53.766;9.626;2022-07-10T01:04:05;14.70;99.90
12872;DHT22;6504;53.766;9.626;2022-07-10T01:06:34;14.60;99.90
12872;DHT22;6504;53.766;9.626;2022-07-10T01:09:03;14.60;99.90
12872;DHT22;6504;53.766;9.626;2022-07-10T01:11:36;14.60;99.90
12872;DHT22;6504;53.766;9.626;2022-07-10T01:14:04;14.60;99.90
12872;DHT22;6504;53.766;9.626;2022-07-10T01:16:39;14.60;99.90
12872;DHT22;6504;53.766;9.626;2022-07-10T01:19:09;14.60;99.90
12872;DHT22;6504;53.766;9.626;2022-07-10T01:21:38;14.60;99.90
12872;DHT22;6504;53.766;9.626;2022-07-10T01:24:10;14.70;99.90
12872;DHT22;6504;53.766;9.626;2022-07-10T01:26:40;14.60;99.90
12872;DHT22;6504;53.766;9.626;2022-07-10T01:29:12;14.60;99.90
12872;DHT22;6504;53.766;9.626;2022-07-10T01:31:40;14.60;99.90
12872;DHT22;6504;53.766;9.626;2022-07-10T01:34:09;14.60;99.90
12872;DHT22;6504;53.766;9.626;2022-07-10T01:36:39;14.60;99.90
12872;DHT22;6504;53.766;9.626;2022-07-10T01:39:08;14.60;99.90
12872;DHT22;6504;53.766;9.626;2022-07-10T01:41:37;14.60;99.90
12872;DHT22;6504;53.766;9.626;2022-07-10T01:44:05;14.60;99.90
12872;DHT22;6504;53.766;9.626;2022-07-10T01:46:33;14.60;99.90
12872;DHT22;6504;53.766;9.626;2022-07-10T01:49:01;14.60;99.90
12872;DHT22;6504;53.766;9.626;2022-07-10T01:51:32;14.60;99.90
12872;DHT22;6504;53.766;9.626;2022-07-10T01:54:01;14.60;99.90
12872;DHT22;6504;53.766;9.626;2022-07-10T01:56:30;14.60;99.90
12872;DHT22;6504;53.766;9.626;2022-07-10T01:58:59;14.70;99.90
12872;DHT22;6504;53.766;9.626;2022-07-10T02:01:33;14.60;99.90
12872;DHT22;6504;53.766;9.626;2022-07-10T02:04:01;14.70;99.90
12872;DHT22;6504;53.766;9.626;2022-07-10T02:06:47;14.70;99.90
12872;DHT22;6504;53.766;9.626;2022-07-10T02:09:17;14.70;99.90
12872;DHT22;6504;53.766;9.626;2022-07-10T02:11:45;14.60;99.90
12872;DHT22;6504;53.766;9.626;2022-07-10T02:14:15;14.60;99.90
12872;DHT22;6504;53.766;9.626;2022-07-10T02:16:45;14.60;99.90
12872;DHT22;6504;53.766;9.626;2022-07-10T02:19:15;14.60;99.90
12872;DHT22;6504;53.766;9.626;2022-07-10T02:21:46;14.60;99.90
12872;DHT22;6504;53.766;9.626;2022-07-10T02:24:14;14.60;99.90
12872;DHT22;6504;53.766;9.626;2022-07-10T02:26:43;14.60;99.90
12872;DHT22;6504;53.766;9.626;2022-07-10T02:29:12;14.50;99.90
12872;DHT22;6504;53.766;9.626;2022-07-10T02:31:43;14.50;99.90
12872;DHT22;6504;53.766;9.626;2022-07-10T02:34:12;14.40;99.90
12872;DHT22;6504;53.766;9.626;2022-07-10T02:36:43;14.40;99.90
12872;DHT22;6504;53.766;9.626;2022-07-10T02:39:12;14.40;99.90
12872;DHT22;6504;53.766;9.626;2022-07-10T02:41:40;14.40;99.90
12872;DHT22;6504;53.766;9.626;2022-07-10T02:44:09;14.40;99.90
12872;DHT22;6504;53.766;9.626;2022-07-10T02:46:38;14.30;99.90
12872;DHT22;6504;53.766;9.626;2022-07-10T02:49:06;14.30;99.90
12872;DHT22;6504;53.766;9.626;2022-07-10T02:51:34;14.30;99.90
12872;DHT22;6504;53.766;9.626;2022-07-10T02:54:03;14.30;99.90
12872;DHT22;6504;53.766;9.626;2022-07-10T02:56:32;14.30;99.90
12872;DHT22;6504;53.766;9.626;2022-07-10T02:59:00;14.40;99.90
12872;DHT22;6504;53.766;9.626;2022-07-10T03:01:29;14.30;99.90
12872;DHT22;6504;53.766;9.626;2022-07-10T03:03:58;14.40;99.90
12872;DHT22;6504;53.766;9.626;2022-07-10T03:06:28;14.40;99.90
12872;DHT22;6504;53.766;9.626;2022-07-10T03:09:00;14.50;99.90
12872;DHT22;6504;53.766;9.626;2022-07-10T03:11:29;14.50;99.90
12872;DHT22;6504;53.766;9.626;2022-07-10T03:13:57;14.50;99.90
12872;DHT22;6504;53.766;9.626;2022-07-10T03:16:29;14.50;99.90
12872;DHT22;6504;53.766;9.626;2022-07-10T03:18:57;14.60;99.90
12872;DHT22;6504;53.766;9.626;2022-07-10T03:21:28;14.60;99.90
12872;DHT22;6504;53.766;9.626;2022-07-10T03:23:57;14.60;99.90
12872;DHT22;6504;53.766;9.626;2022-07-10T03:26:26;14.60;99.90
12872;DHT22;6504;53.766;9.626;2022-07-10T03:28:56;14.70;99.90
12872;DHT22;6504;53.766;9.626;2022-07-10T03:31:25;14.70;99.90
12872;DHT22;6504;53.766;9.626;2022-07-10T03:33:55;14.70;99.90
12872;DHT22;6504;53.766;9.626;2022-07-10T03:36:23;14.70;99.90
12872;DHT22;6504;53.766;9.626;2022-07-10T03:38:51;14.70;99.90
12872;DHT22;6504;53.766;9.626;2022-07-10T03:41:25;14.70;99.90
12872;DHT22;6504;53.766;9.626;2022-07-10T03:43:57;14.70;99.90
12872;DHT22;6504;53.766;9.626;2022-07-10T03:46:25;14.70;99.90
12872;DHT22;6504;53.766;9.626;2022-07-10T03:48:54;14.70;99.90
12872;DHT22;6504;53.766;9.626;2022-07-10T03:51:24;14.70;99.90
12872;DHT22;6504;53.766;9.626;2022-07-10T03:53:52;14.70;99.90
12872;DHT22;6504;53.766;9.626;2022-07-10T03:56:21;14.70;99.90
12872;DHT22;6504;53.766;9.626;2022-07-10T03:59:07;14.70;99.90
12872;DHT22;6504;53.766;9.626;2022-07-10T04:01:35;14.60;99.90
12872;DHT22;6504;53.766;9.626;2022-07-10T04:04:05;14.60;99.90
12872;DHT22;6504;53.766;9.626;2022-07-10T04:06:34;14.50;99.90
12872;DHT22;6504;53.766;9.626;2022-07-10T04:09:08;14.50;99.90
12872;DHT22;6504;53.766;9.626;2022-07-10T04:11:37;14.50;99.90
12872;DHT22;6504;53.766;9.626;2022-07-10T04:14:05;14.50;99.90
12872;DHT22;6504;53.766;9.626;2022-07-10T04:16:37;14.50;99.90
12872;DHT22;6504;53.766;9.626;2022-07-10T04:19:07;14.50;99.90
12872;DHT22;6504;53.766;9.626;2022-07-10T04:21:38;14.50;99.90
12872;DHT22;6504;53.766;9.626;2022-07-10T04:24:07;14.50;99.90
12872;DHT22;6504;53.766;9.626;2022-07-10T04:26:35;14.50;99.90
12872;DHT22;6504;53.766;9.626;2022-07-10T04:29:06;14.50;99.90
12872;DHT22;6504;53.766;9.626;2022-07-10T04:31:34;14.50;99.90
12872;DHT22;6504;53.766;9.626;2022-07-10T04:34:02;14.40;99.90
12872;DHT22;6504;53.766;9.626;2022-07-10T04:36:35;14.30;99.90
12872;DHT22;6504;53.766;9.626;2022-07-10T04:39:13;14.30;99.90
12872;DHT22;6504;53.766;9.626;2022-07-10T04:41:41;14.30;99.90
12872;DHT22;6504;53.766;9.626;2022-07-10T04:44:13;14.40;99.90
12872;DHT22;6504;53.766;9.626;2022-07-10T04:46:41;14.40;99.90
12872;DHT22;6504;53.766;9.626;2022-07-10T04:49:12;14.40;99.90
12872;DHT22;6504;53.766;9.626;2022-07-10T04:51:43;14.40;99.90
12872;DHT22;6504;53.766;9.626;2022-07-10T04:54:15;14.40;99.90
12872;DHT22;6504;53.766;9.626;2022-07-10T04:56:44;14.40;99.90
12872;DHT22;6504;53.766;9.626;2022-07-10T04:59:13;14.50;99.90
12872;DHT22;6504;53.766;9.626;2022-07-10T05:01:45;14.50;99.90
12872;DHT22;6504;53.766;9.626;2022-07-10T05:04:13;14.50;99.90
12872;DHT22;6504;53.766;9.626;2022-07-10T05:06:43;14.60;99.90
12872;DHT22;6504;53.766;9.626;2022-07-10T05:09:11;14.60;99.90
12872;DHT22;6504;53.766;9.626;2022-07-10T05:11:39;14.60;99.90
12872;DHT22;6504;53.766;9.626;2022-07-10T05:14:07;14.60;99.90
12872;DHT22;6504;53.766;9.626;2022-07-10T05:16:36;14.60;99.90
12872;DHT22;6504;53.766;9.626;2022-07-10T05:19:11;14.70;99.90
12872;DHT22;6504;53.766;9.626;2022-07-10T05:21:39;14.70;99.90
12872;DHT22;6504;53.766;9.626;2022-07-10T05:24:12;14.70;99.90
12872;DHT22;6504;53.766;9.626;2022-07-10T05:26:40;14.70;99.90
12872;DHT22;6504;53.766;9.626;2022-07-10T05:29:12;14.70;99.90
12872;DHT22;6504;53.766;9.626;2022-07-10T05:31:42;14.70;99.90
12872;DHT22;6504;53.766;9.626;2022-07-10T05:34:14;14.70;99.90
12872;DHT22;6504;53.766;9.626;2022-07-10T05:36:42;14.80;99.90
12872;DHT22;6504;53.766;9.626;2022-07-10T05:39:11;14.80;99.90
12872;DHT22;6504;53.766;9.626;2022-07-10T05:41:42;14.80;99.90
12872;DHT22;6504;53.766;9.626;2022-07-10T05:44:12;14.80;99.90
12872;DHT22;6504;53.766;9.626;2022-07-10T05:46:46;14.80;99.90
12872;DHT22;6504;53.766;9.626;2022-07-10T05:49:14;14.90;99.90
12872;DHT22;6504;53.766;9.626;2022-07-10T05:51:43;14.90;99.90
12872;DHT22;6504;53.766;9.626;2022-07-10T05:54:13;14.90;99.90
12872;DHT22;6504;53.766;9.626;2022-07-10T05:56:45;14.90;99.90
12872;DHT22;6504;53.766;9.626;2022-07-10T05:59:13;15.00;99.90
12872;DHT22;6504;53.766;9.626;2022-07-10T06:01:44;15.00;99.90
12872;DHT22;6504;53.766;9.626;2022-07-10T06:04:12;15.00;99.90
12872;DHT22;6504;53.766;9.626;2022-07-10T06:06:40;15.00;99.90
12872;DHT22;6504;53.766;9.626;2022-07-10T06:09:12;15.10;99.90
12872;DHT22;6504;53.766;9.626;2022-07-10T06:11:40;15.10;99.90
12872;DHT22;6504;53.766;9.626;2022-07-10T06:14:14;15.10;99.90
12872;DHT22;6504;53.766;9.626;2022-07-10T06:16:42;15.20;99.90
12872;DHT22;6504;53.766;9.626;2022-07-10T06:19:14;15.20;99.90
12872;DHT22;6504;53.766;9.626;2022-07-10T06:21:47;15.30;99.90
12872;DHT22;6504;53.766;9.626;2022-07-10T06:24:16;15.30;99.90
12872;DHT22;6504;53.766;9.626;2022-07-10T06:26:48;15.30;99.90
12872;DHT22;6504;53.766;9.626;2022-07-10T06:29:16;15.30;99.90
12872;DHT22;6504;53.766;9.626;2022-07-10T06:31:44;15.30;99.90
12872;DHT22;6504;53.766;9.626;2022-07-10T06:34:12;15.40;99.90
12872;DHT22;6504;53.766;9.626;2022-07-10T06:36:40;15.40;99.90
12872;DHT22;6504;53.766;9.626;2022-07-10T06:39:08;15.40;99.90
12872;DHT22;6504;53.766;9.626;2022-07-10T06:41:41;15.50;99.90
12872;DHT22;6504;53.766;9.626;2022-07-10T06:44:09;15.50;99.90
12872;DHT22;6504;53.766;9.626;2022-07-10T06:46:43;15.50;99.90
12872;DHT22;6504;53.766;9.626;2022-07-10T06:49:34;15.60;99.90
12872;DHT22;6504;53.766;9.626;2022-07-10T06:52:01;15.60;99.90
12872;DHT22;6504;53.766;9.626;2022-07-10T06:54:37;15.60;99.90
12872;DHT22;6504;53.766;9.626;2022-07-10T06:57:07;15.60;99.90
12872;DHT22;6504;53.766;9.626;2022-07-10T06:59:36;15.60;99.90
12872;DHT22;6504;53.766;9.626;2022-07-10T07:02:04;15.60;99.90
12872;DHT22;6504;53.766;9.626;2022-07-10T07:04:35;15.70;99.90
12872;DHT22;6504;53.766;9.626;2022-07-10T07:07:04;15.80;99.90
12872;DHT22;6504;53.766;9.626;2022-07-10T07:09:32;15.90;99.90
12872;DHT22;6504;53.766;9.626;2022-07-10T07:12:01;16.00;99.90
12872;DHT22;6504;53.766;9.626;2022-07-10T07:14:35;16.00;99.90
12872;DHT22;6504;53.766;9.626;2022-07-10T07:17:13;16.10;99.90
12872;DHT22;6504;53.766;9.626;2022-07-10T07:19:48;16.20;99.90
12872;DHT22;6504;53.766;9.626;2022-07-10T07:22:33;16.30;99.90
12872;DHT22;6504;53.766;9.626;2022-07-10T07:25:19;16.60;99.90
12872;DHT22;6504;53.766;9.626;2022-07-10T07:27:47;16.70;99.90
12872;DHT22;6504;53.766;9.626;2022-07-10T07:30:19;16.80;99.90
12872;DHT22;6504;53.766;9.626;2022-07-10T07:32:48;16.70;99.90
12872;DHT22;6504;53.766;9.626;2022-07-10T07:35:22;16.70;99.90
12872;DHT22;6504;53.766;9.626;2022-07-10T07:37:51;16.70;99.90
12872;DHT22;6504;53.766;9.626;2022-07-10T07:40:22;16.70;99.90
12872;DHT22;6504;53.766;9.626;2022-07-10T07:42:51;16.70;99.90
12872;DHT22;6504;53.766;9.626;2022-07-10T07:45:25;16.70;99.90
12872;DHT22;6504;53.766;9.626;2022-07-10T07:47:54;16.60;99.90
12872;DHT22;6504;53.766;9.626;2022-07-10T07:50:29;16.60;99.90
12872;DHT22;6504;53.766;9.626;2022-07-10T07:53:01;16.60;99.90
12872;DHT22;6504;53.766;9.626;2022-07-10T07:55:30;16.60;99.90
12872;DHT22;6504;53.766;9.626;2022-07-10T07:58:00;16.70;99.90
12872;DHT22;6504;53.766;9.626;2022-07-10T08:00:33;16.70;99.90
12872;DHT22;6504;53.766;9.626;2022-07-10T08:03:02;16.80;99.90
12872;DHT22;6504;53.766;9.626;2022-07-10T08:05:30;16.90;99.90
12872;DHT22;6504;53.766;9.626;2022-07-10T08:08:00;17.00;99.90
12872;DHT22;6504;53.766;9.626;2022-07-10T08:10:32;17.00;99.90
12872;DHT22;6504;53.766;9.626;2022-07-10T08:13:10;17.10;99.90
12872;DHT22;6504;53.766;9.626;2022-07-10T08:15:40;17.20;99.90
12872;DHT22;6504;53.766;9.626;2022-07-10T08:18:08;17.30;99.90
12872;DHT22;6504;53.766;9.626;2022-07-10T08:20:39;17.40;99.90
12872;DHT22;6504;53.766;9.626;2022-07-10T08:23:07;17.50;99.90
12872;DHT22;6504;53.766;9.626;2022-07-10T08:25:38;17.60;99.90
12872;DHT22;6504;53.766;9.626;2022-07-10T08:28:06;17.70;99.90
12872;DHT22;6504;53.766;9.626;2022-07-10T08:30:36;17.70;99.90
12872;DHT22;6504;53.766;9.626;2022-07-10T08:33:10;17.70;99.90
12872;DHT22;6504;53.766;9.626;2022-07-10T08:35:38;17.60;99.90
12872;DHT22;6504;53.766;9.626;2022-07-10T08:38:08;17.60;99.90
12872;DHT22;6504;53.766;9.626;2022-07-10T08:40:36;17.60;99.90
12872;DHT22;6504;53.766;9.626;2022-07-10T08:43:07;17.60;99.90
12872;DHT22;6504;53.766;9.626;2022-07-10T08:45:36;17.70;99.90
12872;DHT22;6504;53.766;9.626;2022-07-10T08:48:07;17.70;99.90
12872;DHT22;6504;53.766;9.626;2022-07-10T08:50:44;17.60;99.90
12872;DHT22;6504;53.766;9.626;2022-07-10T08:53:23;17.70;99.90
12872;DHT22;6504;53.766;9.626;2022-07-10T08:55:52;17.80;99.90
12872;DHT22;6504;53.766;9.626;2022-07-10T08:58:20;17.80;99.90
12872;DHT22;6504;53.766;9.626;2022-07-10T09:00:52;17.80;99.90
12872;DHT22;6504;53.766;9.626;2022-07-10T09:03:21;17.80;99.90
12872;DHT22;6504;53.766;9.626;2022-07-10T09:05:50;17.80;99.90
12872;DHT22;6504;53.766;9.626;2022-07-10T09:08:22;18.00;99.90
12872;DHT22;6504;53.766;9.626;2022-07-10T09:10:51;18.10;99.90
12872;DHT22;6504;53.766;9.626;2022-07-10T09:13:19;18.30;99.90
12872;DHT22;6504;53.766;9.626;2022-07-10T09:15:50;18.40;99.90
12872;DHT22;6504;53.766;9.626;2022-07-10T09:18:23;18.60;99.90
12872;DHT22;6504;53.766;9.626;2022-07-10T09:20:54;18.50;99.90
12872;DHT22;6504;53.766;9.626;2022-07-10T09:23:23;18.50;99.90
12872;DHT22;6504;53.766;9.626;2022-07-10T09:25:53;18.50;99.90
12872;DHT22;6504;53.766;9.626;2022-07-10T09:28:24;18.40;99.90
12872;DHT22;6504;53.766;9.626;2022-07-10T09:30:52;18.40;99.90
12872;DHT22;6504;53.766;9.626;2022-07-10T09:33:22;18.50;99.90
12872;DHT22;6504;53.766;9.626;2022-07-10T09:36:03;18.60;99.90
12872;DHT22;6504;53.766;9.626;2022-07-10T09:38:54;18.70;99.90
12872;DHT22;6504;53.766;9.626;2022-07-10T09:41:25;18.60;99.90
12872;DHT22;6504;53.766;9.626;2022-07-10T09:43:55;18.70;99.90
12872;DHT22;6504;53.766;9.626;2022-07-10T09:46:25;18.80;99.90
12872;DHT22;6504;53.766;9.626;2022-07-10T09:49:05;18.90;99.90
12872;DHT22;6504;53.766;9.626;2022-07-10T09:51:39;18.90;99.90
12872;DHT22;6504;53.766;9.626;2022-07-10T09:54:14;19.00;99.90
12872;DHT22;6504;53.766;9.626;2022-07-10T09:56:44;19.00;99.90
12872;DHT22;6504;53.766;9.626;2022-07-10T09:59:15;19.10;99.90
12872;DHT22;6504;53.766;9.626;2022-07-10T10:01:45;19.20;99.90
12872;DHT22;6504;53.766;9.626;2022-07-10T10:04:18;19.20;99.90
12872;DHT22;6504;53.766;9.626;2022-07-10T10:06:50;19.30;99.90
12872;DHT22;6504;53.766;9.626;2022-07-10T10:09:24;19.30;99.90
12872;DHT22;6504;53.766;9.626;2022-07-10T10:11:56;19.30;99.90
12872;DHT22;6504;53.766;9.626;2022-07-10T10:14:28;19.20;99.90
12872;DHT22;6504;53.766;9.626;2022-07-10T10:17:00;19.20;99.90
12872;DHT22;6504;53.766;9.626;2022-07-10T10:19:48;19.20;99.90
12872;DHT22;6504;53.766;9.626;2022-07-10T10:22:55;19.20;99.90
12872;DHT22;6504;53.766;9.626;2022-07-10T10:25:44;19.20;99.90
12872;DHT22;6504;53.766;9.626;2022-07-10T10:28:33;19.20;99.90
12872;DHT22;6504;53.766;9.626;2022-07-10T10:31:20;19.30;99.90
12872;DHT22;6504;53.766;9.626;2022-07-10T10:34:10;19.50;99.90
12872;DHT22;6504;53.766;9.626;2022-07-10T10:36:55;19.50;99.90
12872;DHT22;6504;53.766;9.626;2022-07-10T10:40:00;19.40;99.90
12872;DHT22;6504;53.766;9.626;2022-07-10T10:42:47;19.40;99.90
12872;DHT22;6504;53.766;9.626;2022-07-10T10:45:33;19.30;99.90
12872;DHT22;6504;53.766;9.626;2022-07-10T10:48:19;19.20;99.90
12872;DHT22;6504;53.766;9.626;2022-07-10T10:51:05;19.20;99.90
12872;DHT22;6504;53.766;9.626;2022-07-10T10:54:04;19.30;99.90
12872;DHT22;6504;53.766;9.626;2022-07-10T10:57:11;19.30;99.90
12872;DHT22;6504;53.766;9.626;2022-07-10T10:59:56;19.30;99.90
12872;DHT22;6504;53.766;9.626;2022-07-10T11:02:42;19.30;99.90
12872;DHT22;6504;53.766;9.626;2022-07-10T11:05:44;19.30;99.90
12872;DHT22;6504;53.766;9.626;2022-07-10T11:08:41;19.30;99.90
12872;DHT22;6504;53.766;9.626;2022-07-10T11:11:39;19.30;99.90
12872;DHT22;6504;53.766;9.626;2022-07-10T11:14:27;19.30;99.90
12872;DHT22;6504;53.766;9.626;2022-07-10T11:17:13;19.30;99.90
12872;DHT22;6504;53.766;9.626;2022-07-10T11:20:01;19.50;99.90
12872;DHT22;6504;53.766;9.626;2022-07-10T11:23:00;19.60;99.90
12872;DHT22;6504;53.766;9.626;2022-07-10T11:25:52;19.70;99.90
12872;DHT22;6504;53.766;9.626;2022-07-10T11:28:50;19.80;99.90
12872;DHT22;6504;53.766;9.626;2022-07-10T11:31:38;19.80;99.90
12872;DHT22;6504;53.766;9.626;2022-07-10T11:34:34;19.80;99.90
12872;DHT22;6504;53.766;9.626;2022-07-10T11:37:20;19.80;99.90
12872;DHT22;6504;53.766;9.626;2022-07-10T11:40:10;19.60;99.90
12872;DHT22;6504;53.766;9.626;2022-07-10T11:42:57;19.60;99.90
12872;DHT22;6504;53.766;9.626;2022-07-10T11:45:44;19.60;99.90
12872;DHT22;6504;53.766;9.626;2022-07-10T11:48:38;19.60;99.90
12872;DHT22;6504;53.766;9.626;2022-07-10T11:51:26;19.60;99.90
12872;DHT22;6504;53.766;9.626;2022-07-10T11:54:15;19.40;99.90
12872;DHT22;6504;53.766;9.626;2022-07-10T11:57:05;19.50;99.90
12872;DHT22;6504;53.766;9.626;2022-07-10T11:59:52;19.60;99.90
12872;DHT22;6504;53.766;9.626;2022-07-10T12:02:38;19.70;99.90
12872;DHT22;6504;53.766;9.626;2022-07-10T12:05:32;19.60;99.90
12872;DHT22;6504;53.766;9.626;2022-07-10T12:08:18;19.60;99.90
12872;DHT22;6504;53.766;9.626;2022-07-10T12:11:11;19.60;99.90
12872;DHT22;6504;53.766;9.626;2022-07-10T12:14:12;19.60;99.90
12872;DHT22;6504;53.766;9.626;2022-07-10T12:16:59;19.60;99.90
12872;DHT22;6504;53.766;9.626;2022-07-10T12:19:45;19.70;99.90
12872;DHT22;6504;53.766;9.626;2022-07-10T12:22:36;19.70;99.90
12872;DHT22;6504;53.766;9.626;2022-07-10T12:25:22;19.90;99.90
12872;DHT22;6504;53.766;9.626;2022-07-10T12:28:08;20.00;99.90
12872;DHT22;6504;53.766;9.626;2022-07-10T12:30:53;19.90;99.90
12872;DHT22;6504;53.766;9.626;2022-07-10T12:33:39;20.00;99.90
12872;DHT22;6504;53.766;9.626;2022-07-10T12:36:41;20.00;99.90
12872;DHT22;6504;53.766;9.626;2022-07-10T12:39:30;19.90;99.90
12872;DHT22;6504;53.766;9.626;2022-07-10T12:42:24;19.90;99.90
12872;DHT22;6504;53.766;9.626;2022-07-10T12:45:12;19.80;99.90
12872;DHT22;6504;53.766;9.626;2022-07-10T12:47:58;19.90;99.90
12872;DHT22;6504;53.766;9.626;2022-07-10T12:50:44;19.90;99.90
12872;DHT22;6504;53.766;9.626;2022-07-10T12:53:30;19.90;99.90
12872;DHT22;6504;53.766;9.626;2022-07-10T12:56:32;19.90;99.90
12872;DHT22;6504;53.766;9.626;2022-07-10T12:59:21;19.80;99.90
12872;DHT22;6504;53.766;9.626;2022-07-10T13:02:17;19.70;99.90
12872;DHT22;6504;53.766;9.626;2022-07-10T13:05:03;19.50;99.90
12872;DHT22;6504;53.766;9.626;2022-07-10T13:07:49;19.40;99.90
12872;DHT22;6504;53.766;9.626;2022-07-10T13:10:35;19.30;99.90
12872;DHT22;6504;53.766;9.626;2022-07-10T13:13:22;19.30;99.90
12872;DHT22;6504;53.766;9.626;2022-07-10T13:16:08;19.30;99.90
12872;DHT22;6504;53.766;9.626;2022-07-10T13:18:54;19.30;99.90
12872;DHT22;6504;53.766;9.626;2022-07-10T13:21:40;19.30;99.90
12872;DHT22;6504;53.766;9.626;2022-07-10T13:24:25;19.30;99.90
12872;DHT22;6504;53.766;9.626;2022-07-10T13:27:11;19.30;99.90
12872;DHT22;6504;53.766;9.626;2022-07-10T13:30:02;19.30;99.90
12872;DHT22;6504;53.766;9.626;2022-07-10T13:32:47;19.20;99.90
12872;DHT22;6504;53.766;9.626;2022-07-10T13:35:33;19.30;99.90
12872;DHT22;6504;53.766;9.626;2022-07-10T13:38:19;19.30;99.90
12872;DHT22;6504;53.766;9.626;2022-07-10T13:41:04;19.20;99.90
12872;DHT22;6504;53.766;9.626;2022-07-10T13:43:50;19.10;99.90
12872;DHT22;6504;53.766;9.626;2022-07-10T13:46:41;19.10;99.90
12872;DHT22;6504;53.766;9.626;2022-07-10T13:49:26;19.20;99.90
12872;DHT22;6504;53.766;9.626;2022-07-10T13:52:12;19.20;99.90
12872;DHT22;6504;53.766;9.626;2022-07-10T13:54:57;19.20;99.90
12872;DHT22;6504;53.766;9.626;2022-07-10T13:57:43;19.20;99.90
12872;DHT22;6504;53.766;9.626;2022-07-10T14:00:29;19.30;99.90
12872;DHT22;6504;53.766;9.626;2022-07-10T14:03:16;19.20;99.90
12872;DHT22;6504;53.766;9.626;2022-07-10T14:06:05;19.20;99.90
12872;DHT22;6504;53.766;9.626;2022-07-10T14:08:51;19.20;99.90
12872;DHT22;6504;53.766;9.626;2022-07-10T14:11:37;19.10;99.90
12872;DHT22;6504;53.766;9.626;2022-07-10T14:14:22;19.10;99.90
12872;DHT22;6504;53.766;9.626;2022-07-10T14:17:08;19.20;99.90
12872;DHT22;6504;53.766;9.626;2022-07-10T14:19:55;19.20;99.90
12872;DHT22;6504;53.766;9.626;2022-07-10T14:22:43;19.10;99.90
12872;DHT22;6504;53.766;9.626;2022-07-10T14:25:30;19.10;99.90
12872;DHT22;6504;53.766;9.626;2022-07-10T14:28:17;19.00;99.90
12872;DHT22;6504;53.766;9.626;2022-07-10T14:31:03;19.00;99.90
12872;DHT22;6504;53.766;9.626;2022-07-10T14:33:50;19.00;99.90
12872;DHT22;6504;53.766;9.626;2022-07-10T14:36:40;18.90;99.90
12872;DHT22;6504;53.766;9.626;2022-07-10T14:39:25;18.90;99.90
12872;DHT22;6504;53.766;9.626;2022-07-10T14:42:11;18.90;99.90
12872;DHT22;6504;53.766;9.626;2022-07-10T14:44:57;18.90;99.90
12872;DHT22;6504;53.766;9.626;2022-07-10T14:47:43;18.90;99.90
12872;DHT22;6504;53.766;9.626;2022-07-10T14:50:28;19.00;99.90
12872;DHT22;6504;53.766;9.626;2022-07-10T14:53:15;19.10;99.90
12872;DHT22;6504;53.766;9.626;2022-07-10T14:56:06;19.10;99.90
12872;DHT22;6504;53.766;9.626;2022-07-10T14:58:51;19.10;99.90
12872;DHT22;6504;53.766;9.626;2022-07-10T15:01:37;19.20;99.90
12872;DHT22;6504;53.766;9.626;2022-07-10T15:04:22;19.20;99.90
12872;DHT22;6504;53.766;9.626;2022-07-10T15:07:08;19.30;99.90
12872;DHT22;6504;53.766;9.626;2022-07-10T15:09:55;19.20;99.90
12872;DHT22;6504;53.766;9.626;2022-07-10T15:12:45;19.10;99.90
12872;DHT22;6504;53.766;9.626;2022-07-10T15:15:31;19.00;99.90
12872;DHT22;6504;53.766;9.626;2022-07-10T15:18:18;18.90;99.90
12872;DHT22;6504;53.766;9.626;2022-07-10T15:21:04;18.90;99.90
12872;DHT22;6504;53.766;9.626;2022-07-10T15:23:49;18.90;99.90
12872;DHT22;6504;53.766;9.626;2022-07-10T15:26:37;18.90;99.90
12872;DHT22;6504;53.766;9.626;2022-07-10T15:29:22;18.90;99.90
12872;DHT22;6504;53.766;9.626;2022-07-10T15:32:13;18.80;99.90
12872;DHT22;6504;53.766;9.626;2022-07-10T15:34:59;18.80;99.90
12872;DHT22;6504;53.766;9.626;2022-07-10T15:37:45;18.80;99.90
12872;DHT22;6504;53.766;9.626;2022-07-10T15:40:31;18.90;99.90
12872;DHT22;6504;53.766;9.626;2022-07-10T15:43:18;18.90;99.90
12872;DHT22;6504;53.766;9.626;2022-07-10T15:46:04;18.90;99.90
12872;DHT22;6504;53.766;9.626;2022-07-10T15:48:50;18.90;99.90
12872;DHT22;6504;53.766;9.626;2022-07-10T15:51:35;18.90;99.90
12872;DHT22;6504;53.766;9.626;2022-07-10T15:54:21;18.80;99.90
12872;DHT22;6504;53.766;9.626;2022-07-10T15:57:07;18.80;99.90
12872;DHT22;6504;53.766;9.626;2022-07-10T16:00:02;18.80;99.90
12872;DHT22;6504;53.766;9.626;2022-07-10T16:02:50;18.90;99.90
12872;DHT22;6504;53.766;9.626;2022-07-10T16:05:35;18.90;99.90
12872;DHT22;6504;53.766;9.626;2022-07-10T16:08:21;19.00;99.90
12872;DHT22;6504;53.766;9.626;2022-07-10T16:11:06;19.00;99.90
12872;DHT22;6504;53.766;9.626;2022-07-10T16:13:52;19.10;99.90
12872;DHT22;6504;53.766;9.626;2022-07-10T16:16:42;19.00;99.90
12872;DHT22;6504;53.766;9.626;2022-07-10T16:19:28;19.00;99.90
12872;DHT22;6504;53.766;9.626;2022-07-10T16:22:14;19.00;99.90
12872;DHT22;6504;53.766;9.626;2022-07-10T16:24:59;19.00;99.90
12872;DHT22;6504;53.766;9.626;2022-07-10T16:28:03;19.00;99.90
12872;DHT22;6504;53.766;9.626;2022-07-10T16:30:49;19.00;99.90
12872;DHT22;6504;53.766;9.626;2022-07-10T16:33:36;19.00;99.90
12872;DHT22;6504;53.766;9.626;2022-07-10T16:36:23;19.00;99.90
12872;DHT22;6504;53.766;9.626;2022-07-10T16:39:09;19.10;99.90
12872;DHT22;6504;53.766;9.626;2022-07-10T16:41:54;19.10;99.90
12872;DHT22;6504;53.766;9.626;2022-07-10T16:44:43;19.10;99.90
12872;DHT22;6504;53.766;9.626;2022-07-10T16:47:30;19.10;99.90